createdAt,value
2019-06-07T00:00:38.418Z,14.99
2019-06-07T00:01:21.598Z,14.90
2019-06-07T00:02:21.560Z,14.89
2019-06-07T00:03:29.515Z,14.95
2019-06-07T00:04:21.659Z,14.90
2019-06-07T00:06:25.358Z,14.96
2019-06-07T00:08:28.028Z,14.86
2019-06-07T00:09:22.689Z,14.93
2019-06-07T00:11:21.512Z,14.93
2019-06-07T00:12:21.770Z,14.95
2019-06-07T00:13:21.585Z,14.89
2019-06-07T00:14:21.417Z,14.92
2019-06-07T00:15:28.436Z,14.96
2019-06-07T00:16:23.250Z,15.01
2019-06-07T00:18:25.876Z,14.92
2019-06-07T00:19:21.191Z,14.92
2019-06-07T00:20:23.586Z,14.92
2019-06-07T00:22:32.613Z,14.92
2019-06-07T00:23:22.936Z,14.89
2019-06-07T00:24:22.072Z,14.85
2019-06-07T00:25:24.331Z,14.83
2019-06-07T00:26:21.474Z,14.87
2019-06-07T00:27:22.646Z,14.82
2019-06-07T00:29:21.830Z,14.82
2019-06-07T00:30:50.577Z,14.85
2019-06-07T00:31:24.410Z,14.96
2019-06-07T00:32:22.103Z,14.93
2019-06-07T00:33:24.318Z,14.93
2019-06-07T00:34:23.046Z,14.83
2019-06-07T00:35:22.549Z,14.90
2019-06-07T00:37:25.110Z,14.79
2019-06-07T00:38:21.969Z,14.86
2019-06-07T00:39:25.365Z,14.87
2019-06-07T00:40:31.350Z,14.90
2019-06-07T00:41:22.284Z,14.95
2019-06-07T00:42:23.740Z,14.93
2019-06-07T00:43:28.054Z,14.79
2019-06-07T00:44:23.253Z,14.82
2019-06-07T00:45:23.959Z,14.85
2019-06-07T00:46:25.087Z,14.83
2019-06-07T00:47:25.016Z,14.82
2019-06-07T00:48:30.982Z,14.82
2019-06-07T00:49:36.086Z,14.77
2019-06-07T00:53:11.448Z,14.78
2019-06-07T00:53:30.985Z,14.71
2019-06-07T00:57:22.163Z,14.71
2019-06-07T00:59:24.397Z,14.56
2019-06-07T01:00:23.579Z,14.55
2019-06-07T01:01:24.864Z,14.66
2019-06-07T01:02:24.876Z,14.59
2019-06-07T01:03:25.196Z,14.66
2019-06-07T01:04:22.832Z,14.59
2019-06-07T01:05:28.129Z,14.52
2019-06-07T01:06:22.985Z,14.56
2019-06-07T01:09:23.921Z,14.61
2019-06-07T01:10:46.468Z,14.56
2019-06-07T01:11:22.108Z,14.56
2019-06-07T01:13:23.779Z,14.55
2019-06-07T01:14:22.656Z,14.58
2019-06-07T01:15:23.523Z,14.56
2019-06-07T01:16:22.275Z,14.59
2019-06-07T01:17:33.067Z,14.45
2019-06-07T01:18:41.130Z,14.56
2019-06-07T01:19:22.362Z,14.58
2019-06-07T01:21:24.828Z,14.51
2019-06-07T01:22:23.503Z,14.53
2019-06-07T01:24:03.380Z,14.46
2019-06-07T01:24:24.565Z,14.41
2019-06-07T01:25:23.789Z,14.51
2019-06-07T01:26:22.441Z,14.56
2019-06-07T01:27:22.554Z,14.45
2019-06-07T01:28:21.414Z,14.46
2019-06-07T01:29:22.283Z,14.44
2019-06-07T01:31:21.162Z,14.33
2019-06-07T01:32:21.109Z,14.36
2019-06-07T01:33:20.869Z,14.33
2019-06-07T01:34:21.143Z,14.27
2019-06-07T01:35:20.639Z,14.26
2019-06-07T01:36:22.339Z,14.12
2019-06-07T01:37:22.588Z,14.11
2019-06-07T01:38:22.898Z,14.09
2019-06-07T01:42:20.438Z,13.90
2019-06-07T01:43:23.284Z,13.75
2019-06-07T01:44:22.698Z,13.75
2019-06-07T01:45:21.221Z,13.72
2019-06-07T01:47:21.273Z,13.58
2019-06-07T01:48:22.801Z,13.51
2019-06-07T01:49:19.861Z,13.51
2019-06-07T01:50:23.309Z,13.53
2019-06-07T01:51:20.070Z,13.43
2019-06-07T01:52:24.494Z,13.54
2019-06-07T01:53:23.443Z,13.49
2019-06-07T01:54:52.117Z,13.42
2019-06-07T01:55:23.671Z,13.27
2019-06-07T01:56:21.723Z,13.29
2019-06-07T01:57:36.212Z,13.20
2019-06-07T01:58:19.877Z,13.21
2019-06-07T01:59:21.959Z,13.16
2019-06-07T02:01:21.134Z,13.11
2019-06-07T02:03:25.778Z,13.13
2019-06-07T02:06:21.043Z,13.08
2019-06-07T02:07:24.075Z,13.06
2019-06-07T02:08:20.441Z,13.02
2019-06-07T02:09:20.869Z,13.04
2019-06-07T02:10:20.390Z,13.04
2019-06-07T02:11:20.957Z,13.04
2019-06-07T02:12:31.232Z,13.04
2019-06-07T02:13:21.220Z,12.99
2019-06-07T02:14:19.657Z,13.01
2019-06-07T02:15:22.722Z,12.99
2019-06-07T02:16:19.524Z,12.99
2019-06-07T02:18:28.317Z,13.01
2019-06-07T02:20:20.329Z,13.06
2019-06-07T02:21:23.188Z,13.02
2019-06-07T02:22:21.479Z,13.06
2019-06-07T02:23:20.665Z,13.02
2019-06-07T02:24:24.439Z,12.91
2019-06-07T02:25:42.932Z,12.96
2019-06-07T02:26:20.436Z,12.90
2019-06-07T02:28:31.969Z,12.79
2019-06-07T02:29:19.114Z,12.73
2019-06-07T02:31:19.249Z,12.73
2019-06-07T02:32:19.043Z,12.68
2019-06-07T02:33:24.100Z,12.71
2019-06-07T02:34:18.997Z,12.76
2019-06-07T02:35:18.966Z,12.72
2019-06-07T02:36:18.954Z,12.69
2019-06-07T02:37:21.491Z,12.71
2019-06-07T02:38:18.903Z,12.65
2019-06-07T02:39:19.108Z,12.62
2019-06-07T02:40:19.110Z,12.63
2019-06-07T02:41:18.905Z,12.63
2019-06-07T02:43:18.880Z,12.61
2019-06-07T02:44:18.835Z,12.68
2019-06-07T02:45:18.843Z,12.61
2019-06-07T02:47:19.158Z,12.58
2019-06-07T02:48:18.647Z,12.48
2019-06-07T02:49:19.022Z,12.47
2019-06-07T02:50:18.692Z,12.50
2019-06-07T02:51:18.592Z,12.50
2019-06-07T02:52:18.657Z,12.50
2019-06-07T02:54:18.540Z,12.46
2019-06-07T02:55:18.879Z,12.48
2019-06-07T02:57:18.594Z,12.55
2019-06-07T02:58:18.598Z,12.33
2019-06-07T02:59:18.717Z,12.43
2019-06-07T03:00:41.730Z,12.46
2019-06-07T03:01:18.775Z,12.36
2019-06-07T03:02:18.487Z,12.48
2019-06-07T03:03:18.677Z,12.51
2019-06-07T03:04:18.354Z,12.44
2019-06-07T03:06:18.418Z,12.33
2019-06-07T03:07:19.080Z,12.28
2019-06-07T03:08:18.583Z,12.32
2019-06-07T03:09:18.449Z,12.29
2019-06-07T03:10:18.412Z,12.26
2019-06-07T03:11:18.301Z,12.26
2019-06-07T03:12:18.301Z,12.22
2019-06-07T03:13:18.315Z,12.21
2019-06-07T03:14:18.305Z,12.18
2019-06-07T03:15:32.979Z,12.18
2019-06-07T03:16:18.233Z,12.25
2019-06-07T03:18:18.304Z,12.25
2019-06-07T03:19:18.159Z,12.28
2019-06-07T03:20:18.177Z,12.18
2019-06-07T03:22:18.101Z,12.21
2019-06-07T03:23:18.739Z,12.18
2019-06-07T03:25:19.071Z,12.18
2019-06-07T03:27:41.526Z,12.17
2019-06-07T03:28:17.999Z,12.08
2019-06-07T03:29:18.250Z,12.13
2019-06-07T03:32:17.901Z,11.99
2019-06-07T03:34:17.981Z,12.00
2019-06-07T03:36:23.759Z,12.03
2019-06-07T03:37:17.868Z,11.93
2019-06-07T03:39:17.960Z,11.88
2019-06-07T03:40:17.780Z,11.87
2019-06-07T03:42:17.742Z,11.88
2019-06-07T03:43:18.016Z,11.84
2019-06-07T03:44:17.821Z,11.76
2019-06-07T03:45:17.774Z,11.85
2019-06-07T03:46:17.661Z,11.88
2019-06-07T03:47:17.582Z,11.82
2019-06-07T03:48:17.546Z,11.70
2019-06-07T03:49:17.841Z,11.76
2019-06-07T03:50:17.667Z,11.62
2019-06-07T03:51:25.185Z,11.61
2019-06-07T03:52:17.473Z,11.61
2019-06-07T03:55:17.417Z,11.71
2019-06-07T03:56:18.527Z,11.73
2019-06-07T03:58:31.398Z,11.66
2019-06-07T03:59:17.345Z,11.76
2019-06-07T04:00:17.421Z,11.69
2019-06-07T04:01:17.314Z,11.66
2019-06-07T04:02:17.674Z,11.76
2019-06-07T04:05:17.363Z,11.66
2019-06-07T04:06:17.358Z,11.70
2019-06-07T04:07:17.405Z,11.62
2019-06-07T04:08:17.313Z,11.61
2019-06-07T04:09:17.803Z,11.69
2019-06-07T04:10:17.459Z,11.64
2019-06-07T04:11:17.292Z,11.61
2019-06-07T04:12:17.176Z,11.69
2019-06-07T04:13:18.543Z,11.69
2019-06-07T04:14:17.197Z,11.66
2019-06-07T04:15:17.347Z,11.62
2019-06-07T04:16:17.332Z,11.55
2019-06-07T04:17:17.031Z,11.59
2019-06-07T04:18:16.998Z,11.71
2019-06-07T04:19:17.068Z,11.74
2019-06-07T04:20:17.149Z,11.70
2019-06-07T04:23:27.573Z,11.71
2019-06-07T04:24:17.419Z,11.73
2019-06-07T04:25:16.974Z,11.77
2019-06-07T04:26:16.846Z,11.80
2019-06-07T04:27:16.843Z,11.67
2019-06-07T04:28:16.858Z,11.80
2019-06-07T04:29:41.574Z,11.82
2019-06-07T04:30:16.819Z,11.82
2019-06-07T04:31:16.808Z,11.76
2019-06-07T04:32:16.780Z,11.87
2019-06-07T04:33:16.745Z,11.85
2019-06-07T04:34:16.905Z,11.96
2019-06-07T04:35:16.783Z,11.97
2019-06-07T04:36:16.963Z,11.99
2019-06-07T04:37:16.714Z,12.03
2019-06-07T04:39:16.782Z,12.04
2019-06-07T04:40:16.960Z,12.07
2019-06-07T04:41:16.721Z,12.10
2019-06-07T04:42:16.630Z,12.21
2019-06-07T04:43:16.930Z,12.17
2019-06-07T04:45:32.955Z,12.33
2019-06-07T04:47:16.910Z,12.40
2019-06-07T04:48:16.952Z,12.48
2019-06-07T04:49:16.547Z,12.47
2019-06-07T04:50:16.784Z,12.59
2019-06-07T04:51:17.154Z,12.59
2019-06-07T04:52:16.657Z,12.73
2019-06-07T04:53:16.516Z,12.71
2019-06-07T04:54:16.987Z,12.77
2019-06-07T04:58:17.506Z,13.02
2019-06-07T05:00:00.414Z,13.02
2019-06-07T05:00:46.870Z,13.13
2019-06-07T05:01:26.694Z,13.17
2019-06-07T05:02:16.303Z,13.21
2019-06-07T05:04:16.573Z,13.32
2019-06-07T05:05:16.135Z,13.39
2019-06-07T05:06:16.229Z,13.39
2019-06-07T05:07:16.277Z,13.47
2019-06-07T05:09:16.233Z,13.55
2019-06-07T05:10:16.524Z,13.45
2019-06-07T05:12:16.826Z,13.60
2019-06-07T05:13:16.197Z,13.67
2019-06-07T05:14:16.143Z,13.61
2019-06-07T05:15:16.033Z,13.61
2019-06-07T05:16:16.350Z,13.64
2019-06-07T05:19:15.993Z,13.80
2019-06-07T05:20:16.235Z,13.85
2019-06-07T05:21:15.838Z,13.80
2019-06-07T05:22:16.298Z,13.86
2019-06-07T05:23:59.254Z,13.98
2019-06-07T05:24:16.107Z,13.94
2019-06-07T05:25:15.864Z,14.09
2019-06-07T05:26:15.880Z,14.01
2019-06-07T05:27:16.018Z,14.00
2019-06-07T05:28:16.206Z,14.09
2019-06-07T05:29:15.951Z,14.16
2019-06-07T05:30:51.002Z,14.11
2019-06-07T05:31:15.746Z,14.16
2019-06-07T05:33:15.810Z,14.22
2019-06-07T05:35:16.146Z,14.23
2019-06-07T05:37:15.700Z,14.40
2019-06-07T05:39:15.775Z,14.48
2019-06-07T05:40:15.708Z,14.52
2019-06-07T05:41:16.065Z,14.58
2019-06-07T05:42:16.193Z,14.58
2019-06-07T05:43:15.603Z,14.64
2019-06-07T05:44:15.631Z,14.61
2019-06-07T05:45:15.784Z,14.73
2019-06-07T05:46:15.575Z,14.78
2019-06-07T05:47:15.472Z,14.74
2019-06-07T05:48:15.591Z,14.78
2019-06-07T05:49:15.782Z,14.92
2019-06-07T05:50:38.452Z,15.03
2019-06-07T05:51:15.810Z,14.92
2019-06-07T05:52:15.352Z,15.04
2019-06-07T05:54:15.711Z,15.05
2019-06-07T05:55:15.926Z,15.11
2019-06-07T05:56:15.858Z,15.10
2019-06-07T05:57:15.330Z,15.20
2019-06-07T05:58:15.720Z,15.29
2019-06-07T05:59:15.203Z,15.29
2019-06-07T06:00:15.606Z,15.35
2019-06-07T06:01:42.234Z,15.41
2019-06-07T06:02:22.701Z,15.50
2019-06-07T06:03:15.226Z,15.52
2019-06-07T06:06:15.309Z,15.77
2019-06-07T06:08:15.565Z,15.66
2019-06-07T06:09:15.215Z,15.78
2019-06-07T06:14:15.349Z,15.83
2019-06-07T06:18:14.980Z,15.91
2019-06-07T06:21:19.690Z,15.96
2019-06-07T06:23:14.909Z,16.03
2019-06-07T06:25:33.017Z,16.06
2019-06-07T06:26:15.062Z,16.08
2019-06-07T06:27:55.700Z,16.08
2019-06-07T06:28:16.191Z,16.14
2019-06-07T06:35:15.340Z,16.25
2019-06-07T06:36:14.692Z,16.28
2019-06-07T06:37:14.602Z,16.29
2019-06-07T06:38:14.829Z,16.36
2019-06-07T06:41:16.471Z,16.36
2019-06-07T06:42:15.004Z,16.37
2019-06-07T06:43:14.543Z,16.43
2019-06-07T06:44:14.636Z,16.61
2019-06-07T06:45:14.466Z,16.54
2019-06-07T06:47:14.519Z,16.59
2019-06-07T06:48:14.537Z,16.64
2019-06-07T06:50:14.737Z,16.67
2019-06-07T06:51:14.350Z,16.73
2019-06-07T06:52:14.587Z,16.77
2019-06-07T06:53:14.950Z,16.80
2019-06-07T06:54:14.626Z,16.83
2019-06-07T06:56:25.450Z,16.87
2019-06-07T06:57:19.659Z,16.84
2019-06-07T06:58:14.599Z,16.92
2019-06-07T06:59:37.503Z,17.02
2019-06-07T07:00:14.342Z,17.07
2019-06-07T07:02:14.755Z,17.01
2019-06-07T07:03:56.074Z,17.07
2019-06-07T07:04:14.336Z,17.07
2019-06-07T07:06:25.814Z,17.10
2019-06-07T07:08:14.754Z,17.13
2019-06-07T07:09:14.265Z,17.28
2019-06-07T07:10:14.202Z,17.30
2019-06-07T07:11:14.342Z,17.25
2019-06-07T07:13:14.681Z,17.41
2019-06-07T07:14:14.144Z,17.30
2019-06-07T07:15:14.436Z,17.25
2019-06-07T07:17:14.290Z,17.41
2019-06-07T07:18:14.292Z,17.27
2019-06-07T07:21:14.634Z,17.49
2019-06-07T07:22:14.601Z,17.46
2019-06-07T07:23:14.486Z,17.56
2019-06-07T07:24:21.692Z,17.73
2019-06-07T07:25:13.866Z,17.86
2019-06-07T07:26:13.884Z,17.97
2019-06-07T07:27:13.947Z,18.05
2019-06-07T07:29:14.098Z,18.15
2019-06-07T07:30:36.205Z,18.21
2019-06-07T07:31:13.832Z,18.23
2019-06-07T07:33:14.016Z,18.24
2019-06-07T07:36:35.624Z,18.38
2019-06-07T07:37:13.929Z,18.45
2019-06-07T07:38:13.899Z,18.54
2019-06-07T07:39:13.786Z,18.57
2019-06-07T07:40:55.754Z,18.71
2019-06-07T07:41:15.936Z,18.89
2019-06-07T07:42:21.294Z,18.93
2019-06-07T07:44:14.436Z,19.30
2019-06-07T07:45:13.719Z,19.19
2019-06-07T07:46:29.323Z,19.20
2019-06-07T07:47:13.989Z,19.24
2019-06-07T07:48:18.087Z,19.32
2019-06-07T07:49:13.612Z,19.22
2019-06-07T07:50:14.397Z,19.32
2019-06-07T07:53:13.473Z,19.75
2019-06-07T07:54:13.550Z,19.92
2019-06-07T07:55:13.595Z,19.92
2019-06-07T07:56:13.743Z,20.04
2019-06-07T07:59:13.404Z,20.17
2019-06-07T08:00:49.543Z,20.29
2019-06-07T08:01:13.708Z,20.39
2019-06-07T08:04:13.569Z,20.53
2019-06-07T08:06:13.591Z,20.50
2019-06-07T08:07:13.519Z,20.52
2019-06-07T08:08:13.845Z,20.65
2019-06-07T08:09:13.406Z,20.68
2019-06-07T08:10:13.493Z,20.74
2019-06-07T08:12:13.442Z,20.90
2019-06-07T08:14:14.064Z,21.00
2019-06-07T08:15:13.334Z,21.03
2019-06-07T08:16:16.489Z,21.07
2019-06-07T08:17:13.327Z,20.97
2019-06-07T08:18:13.330Z,21.11
2019-06-07T08:19:13.358Z,21.23
2019-06-07T08:20:13.665Z,21.25
2019-06-07T08:21:24.342Z,21.37
2019-06-07T08:22:13.233Z,21.37
2019-06-07T08:23:18.480Z,21.37
2019-06-07T08:24:13.365Z,21.38
2019-06-07T08:25:13.429Z,21.35
2019-06-07T08:26:13.965Z,21.44
2019-06-07T08:27:25.808Z,21.43
2019-06-07T08:28:13.447Z,21.43
2019-06-07T08:31:13.231Z,21.74
2019-06-07T08:33:25.933Z,22.03
2019-06-07T08:36:02.372Z,22.23
2019-06-07T08:36:21.821Z,22.23
2019-06-07T08:37:13.174Z,22.40
2019-06-07T08:38:26.017Z,22.25
2019-06-07T08:39:13.541Z,22.23
2019-06-07T08:40:13.651Z,22.31
2019-06-07T08:41:13.708Z,22.31
2019-06-07T08:42:21.097Z,22.44
2019-06-07T08:43:20.536Z,22.56
2019-06-07T08:44:23.161Z,22.68
2019-06-07T08:46:13.606Z,22.99
2019-06-07T08:47:20.465Z,23.10
2019-06-07T08:48:27.500Z,23.08
2019-06-07T08:49:13.008Z,23.08
2019-06-07T08:50:13.022Z,23.01
2019-06-07T08:53:12.918Z,23.10
2019-06-07T08:54:22.238Z,23.13
2019-06-07T08:55:12.911Z,23.06
2019-06-07T08:57:21.305Z,23.42
2019-06-07T08:58:13.615Z,23.59
2019-06-07T08:59:13.022Z,23.61
2019-06-07T09:00:43.055Z,23.56
2019-06-07T09:01:12.855Z,23.46
2019-06-07T09:02:23.340Z,23.56
2019-06-07T09:03:13.167Z,23.69
2019-06-07T09:04:13.014Z,23.76
2019-06-07T09:07:01.693Z,23.86
2019-06-07T09:07:19.601Z,23.88
2019-06-07T09:09:13.068Z,23.92
2019-06-07T09:10:15.229Z,23.86
2019-06-07T09:12:13.757Z,23.82
2019-06-07T09:13:13.140Z,24.07
2019-06-07T09:15:22.852Z,24.51
2019-06-07T09:16:12.843Z,24.43
2019-06-07T09:17:13.075Z,24.26
2019-06-07T09:18:44.220Z,24.36
2019-06-07T09:19:12.820Z,24.45
2019-06-07T09:20:35.004Z,24.55
2019-06-07T09:22:12.963Z,24.55
2019-06-07T09:23:17.354Z,24.63
2019-06-07T09:24:14.839Z,24.60
2019-06-07T09:25:21.203Z,24.33
2019-06-07T09:27:13.417Z,24.26
2019-06-07T09:28:19.419Z,24.48
2019-06-07T09:29:13.230Z,24.74
2019-06-07T09:30:18.516Z,24.81
2019-06-07T09:32:18.259Z,24.86
2019-06-07T09:34:15.095Z,25.01
2019-06-07T09:36:13.533Z,25.15
2019-06-07T09:38:02.660Z,25.09
2019-06-07T09:39:14.005Z,25.28
2019-06-07T09:40:24.118Z,25.28
2019-06-07T09:41:12.733Z,25.34
2019-06-07T09:42:12.947Z,25.38
2019-06-07T09:44:23.859Z,25.48
2019-06-07T09:45:14.178Z,25.43
2019-06-07T09:46:16.292Z,25.52
2019-06-07T09:47:31.355Z,25.64
2019-06-07T09:48:16.409Z,25.61
2019-06-07T09:49:21.106Z,25.88
2019-06-07T09:52:12.840Z,25.71
2019-06-07T09:53:21.738Z,25.71
2019-06-07T09:55:02.384Z,25.74
2019-06-07T09:55:23.783Z,25.78
2019-06-07T09:56:12.792Z,26.00
2019-06-07T09:57:17.533Z,26.01
2019-06-07T09:59:13.226Z,25.71
2019-06-07T10:00:39.034Z,25.92
2019-06-07T10:01:13.947Z,25.85
2019-06-07T10:02:13.780Z,25.96
2019-06-07T10:03:21.227Z,25.98
2019-06-07T10:04:28.499Z,25.85
2019-06-07T10:05:14.357Z,26.01
2019-06-07T10:06:13.591Z,26.10
2019-06-07T10:07:30.549Z,26.27
2019-06-07T10:08:41.330Z,26.34
2019-06-07T10:11:12.633Z,26.57
2019-06-07T10:15:12.641Z,26.83
2019-06-07T10:16:12.672Z,26.93
2019-06-07T10:17:13.067Z,26.93
2019-06-07T10:18:12.713Z,26.85
2019-06-07T10:19:12.716Z,26.95
2019-06-07T10:20:12.856Z,26.97
2019-06-07T10:21:25.464Z,26.98
2019-06-07T10:23:13.011Z,26.41
2019-06-07T10:25:13.211Z,26.60
2019-06-07T10:29:13.000Z,26.82
2019-06-07T10:30:12.755Z,27.13
2019-06-07T10:31:12.810Z,27.27
2019-06-07T10:32:12.823Z,27.04
2019-06-07T10:33:12.752Z,27.01
2019-06-07T10:38:12.697Z,25.27
2019-06-07T10:40:12.650Z,26.38
2019-06-07T10:41:13.198Z,26.56
2019-06-07T10:42:12.667Z,26.80
2019-06-07T10:43:14.553Z,26.85
2019-06-07T10:44:13.204Z,27.30
2019-06-07T10:45:12.666Z,27.44
2019-06-07T10:46:12.671Z,27.26
2019-06-07T10:47:12.660Z,27.40
2019-06-07T10:48:25.471Z,27.27
2019-06-07T10:49:12.785Z,27.26
2019-06-07T10:50:12.812Z,26.83
2019-06-07T10:51:14.745Z,26.82
2019-06-07T10:52:13.322Z,26.79
2019-06-07T10:54:24.750Z,27.38
2019-06-07T10:55:12.775Z,27.68
2019-06-07T10:57:16.060Z,27.37
2019-06-07T10:58:13.263Z,27.08
2019-06-07T10:59:15.732Z,27.17
2019-06-07T11:00:13.592Z,27.54
2019-06-07T11:02:14.078Z,27.80
2019-06-07T11:04:13.840Z,28.00
2019-06-07T11:06:14.213Z,27.98
2019-06-07T11:07:14.336Z,27.95
2019-06-07T11:08:13.686Z,28.12
2019-06-07T11:09:14.129Z,28.24
2019-06-07T11:10:18.801Z,28.44
2019-06-07T11:11:12.853Z,28.53
2019-06-07T11:13:12.856Z,28.53
2019-06-07T11:14:12.842Z,28.31
2019-06-07T11:16:13.379Z,28.16
2019-06-07T11:19:16.368Z,28.05
2019-06-07T11:21:14.203Z,28.09
2019-06-07T11:22:14.275Z,28.20
2019-06-07T11:24:14.320Z,28.56
2019-06-07T11:25:12.926Z,28.64
2019-06-07T11:26:12.833Z,28.56
2019-06-07T11:27:14.077Z,28.83
2019-06-07T11:28:14.497Z,28.98
2019-06-07T11:29:12.893Z,29.10
2019-06-07T11:31:13.364Z,29.19
2019-06-07T11:32:12.782Z,29.09
2019-06-07T11:33:15.776Z,28.98
2019-06-07T11:34:14.578Z,28.65
2019-06-07T11:35:14.015Z,28.66
2019-06-07T11:36:12.974Z,28.66
2019-06-07T11:37:13.791Z,28.80
2019-06-07T11:38:13.005Z,28.80
2019-06-07T11:39:15.051Z,28.89
2019-06-07T11:47:14.556Z,29.34
2019-06-07T11:49:19.080Z,29.33
2019-06-07T11:50:13.764Z,29.40
2019-06-07T11:52:13.890Z,29.28
2019-06-07T11:53:14.635Z,29.17
2019-06-07T11:54:16.232Z,28.69
2019-06-07T11:55:19.183Z,28.90
2019-06-07T11:56:14.442Z,29.18
2019-06-07T11:58:24.821Z,28.83
2019-06-07T11:59:13.401Z,28.53
2019-06-07T12:00:13.962Z,28.38
2019-06-07T12:01:14.986Z,27.90
2019-06-07T12:02:13.384Z,28.10
2019-06-07T12:03:13.841Z,28.44
2019-06-07T12:04:14.089Z,28.71
2019-06-07T12:06:14.551Z,29.10
2019-06-07T12:08:14.021Z,29.43
2019-06-07T12:11:14.282Z,29.52
2019-06-07T12:12:12.939Z,29.55
2019-06-07T12:13:14.982Z,29.46
2019-06-07T12:14:13.102Z,29.22
2019-06-07T12:15:13.330Z,29.09
2019-06-07T12:16:13.247Z,29.19
2019-06-07T12:17:13.442Z,29.22
2019-06-07T12:18:13.173Z,29.24
2019-06-07T12:19:13.608Z,29.29
2019-06-07T12:20:14.748Z,29.61
2019-06-07T12:21:13.631Z,29.91
2019-06-07T12:23:14.160Z,29.78
2019-06-07T12:24:14.094Z,29.95
2019-06-07T12:26:14.319Z,29.49
2019-06-07T12:27:14.612Z,28.98
2019-06-07T12:28:13.007Z,28.22
2019-06-07T12:31:13.062Z,29.12
2019-06-07T12:32:19.606Z,29.29
2019-06-07T12:33:13.561Z,29.50
2019-06-07T12:34:13.486Z,29.58
2019-06-07T12:36:13.560Z,29.87
2019-06-07T12:37:13.917Z,29.93
2019-06-07T12:38:14.615Z,30.11
2019-06-07T12:39:13.904Z,30.05
2019-06-07T12:41:14.027Z,30.18
2019-06-07T12:42:14.933Z,30.22
2019-06-07T12:43:14.456Z,30.37
2019-06-07T12:44:14.463Z,30.24
2019-06-07T12:46:15.336Z,29.22
2019-06-07T12:47:13.061Z,28.28
2019-06-07T12:48:21.300Z,27.69
2019-06-07T12:50:13.506Z,26.64
2019-06-07T12:51:13.178Z,26.63
2019-06-07T12:52:16.039Z,27.50
2019-06-07T12:54:13.330Z,28.34
2019-06-07T12:56:13.570Z,28.87
2019-06-07T12:59:13.865Z,29.43
2019-06-07T13:02:14.204Z,29.65
2019-06-07T13:03:14.268Z,29.34
2019-06-07T13:04:14.305Z,29.43
2019-06-07T13:05:13.043Z,29.58
2019-06-07T13:07:13.210Z,29.62
2019-06-07T13:08:13.263Z,29.37
2019-06-07T13:09:12.958Z,29.55
2019-06-07T13:10:13.245Z,29.41
2019-06-07T13:11:17.543Z,28.74
2019-06-07T13:12:13.485Z,28.32
2019-06-07T13:13:13.001Z,28.32
2019-06-07T13:15:16.014Z,28.22
2019-06-07T13:16:13.199Z,28.43
2019-06-07T13:17:13.433Z,28.81
2019-06-07T13:18:15.157Z,29.34
2019-06-07T13:19:13.988Z,29.68
2019-06-07T13:20:13.489Z,30.17
2019-06-07T13:21:13.262Z,30.46
2019-06-07T13:22:13.424Z,30.65
2019-06-07T13:23:13.157Z,30.83
2019-06-07T13:24:13.453Z,30.70
2019-06-07T13:25:13.091Z,30.58
2019-06-07T13:26:16.880Z,30.83
2019-06-07T13:27:12.955Z,31.05
2019-06-07T13:28:13.302Z,31.08
2019-06-07T13:29:13.166Z,31.11
2019-06-07T13:30:12.964Z,30.86
2019-06-07T13:31:12.970Z,30.86
2019-06-07T13:32:13.455Z,31.08
2019-06-07T13:33:13.879Z,31.12
2019-06-07T13:34:14.233Z,31.23
2019-06-07T13:36:13.269Z,31.33
2019-06-07T13:37:13.274Z,31.08
2019-06-07T13:39:13.407Z,29.55
2019-06-07T13:40:13.083Z,28.86
2019-06-07T13:42:13.039Z,29.59
2019-06-07T13:43:13.030Z,29.95
2019-06-07T13:44:13.052Z,30.26
2019-06-07T13:45:13.384Z,30.73
2019-06-07T13:46:13.237Z,30.52
2019-06-07T13:47:13.064Z,30.55
2019-06-07T13:48:13.163Z,30.70
2019-06-07T13:49:13.662Z,29.96
2019-06-07T13:50:13.391Z,29.46
2019-06-07T13:51:13.099Z,29.99
2019-06-07T13:52:14.039Z,30.18
2019-06-07T13:54:13.057Z,30.17
2019-06-07T13:55:13.125Z,30.37
2019-06-07T13:57:13.104Z,30.82
2019-06-07T13:58:13.161Z,30.95
2019-06-07T13:59:13.307Z,30.70
2019-06-07T14:00:13.087Z,30.20
2019-06-07T14:01:13.012Z,28.50
2019-06-07T14:02:13.069Z,28.19
2019-06-07T14:03:13.246Z,28.57
2019-06-07T14:05:13.305Z,28.54
2019-06-07T14:07:13.075Z,29.09
2019-06-07T14:09:13.578Z,30.14
2019-06-07T14:10:13.150Z,30.49
2019-06-07T14:12:13.370Z,30.80
2019-06-07T14:13:13.576Z,30.82
2019-06-07T14:14:13.161Z,30.88
2019-06-07T14:15:13.000Z,30.60
2019-06-07T14:16:13.026Z,29.59
2019-06-07T14:17:13.189Z,28.71
2019-06-07T14:18:13.724Z,29.03
2019-06-07T14:19:13.748Z,29.18
2019-06-07T14:20:13.987Z,29.21
2019-06-07T14:22:13.115Z,29.93
2019-06-07T14:23:13.014Z,29.68
2019-06-07T14:24:13.472Z,29.74
2019-06-07T14:25:13.046Z,29.54
2019-06-07T14:26:14.086Z,29.55
2019-06-07T14:27:13.607Z,29.81
2019-06-07T14:28:13.192Z,30.15
2019-06-07T14:29:18.665Z,30.52
2019-06-07T14:30:13.266Z,30.64
2019-06-07T14:31:13.398Z,30.73
2019-06-07T14:32:14.535Z,30.56
2019-06-07T14:33:13.738Z,30.13
2019-06-07T14:35:13.103Z,30.30
2019-06-07T14:36:13.211Z,30.64
2019-06-07T14:37:13.113Z,30.75
2019-06-07T14:38:13.071Z,30.45
2019-06-07T14:39:13.193Z,30.15
2019-06-07T14:40:13.299Z,29.63
2019-06-07T14:41:13.238Z,29.89
2019-06-07T14:43:13.145Z,29.89
2019-06-07T14:47:13.479Z,30.15
2019-06-07T14:48:13.572Z,30.14
2019-06-07T14:49:12.993Z,30.00
2019-06-07T14:50:12.994Z,29.68
2019-06-07T14:51:13.094Z,29.03
2019-06-07T14:52:13.144Z,28.93
2019-06-07T14:53:13.405Z,29.09
2019-06-07T14:54:13.107Z,29.33
2019-06-07T14:55:13.477Z,29.76
2019-06-07T14:56:13.381Z,29.98
2019-06-07T14:57:13.008Z,30.13
2019-06-07T14:58:13.798Z,29.92
2019-06-07T14:59:13.472Z,29.92
2019-06-07T15:03:13.512Z,29.02
2019-06-07T15:04:13.053Z,29.03
2019-06-07T15:05:13.932Z,28.91
2019-06-07T15:06:13.146Z,29.00
2019-06-07T15:08:13.227Z,29.25
2019-06-07T15:09:13.063Z,29.52
2019-06-07T15:10:13.143Z,29.46
2019-06-07T15:12:24.535Z,29.80
2019-06-07T15:13:13.059Z,29.52
2019-06-07T15:14:16.664Z,29.02
2019-06-07T15:15:13.069Z,28.96
2019-06-07T15:16:13.372Z,29.28
2019-06-07T15:17:13.573Z,29.46
2019-06-07T15:19:13.019Z,29.37
2019-06-07T15:20:14.088Z,29.62
2019-06-07T15:21:13.688Z,29.71
2019-06-07T15:22:12.935Z,29.68
2019-06-07T15:23:13.423Z,29.58
2019-06-07T15:26:12.972Z,29.66
2019-06-07T15:28:13.110Z,29.81
2019-06-07T15:30:15.320Z,29.89
2019-06-07T15:31:13.437Z,29.76
2019-06-07T15:34:13.276Z,30.00
2019-06-07T15:35:12.941Z,29.93
2019-06-07T15:36:13.511Z,29.92
2019-06-07T15:37:13.324Z,29.99
2019-06-07T15:38:12.873Z,29.84
2019-06-07T15:39:14.002Z,29.70
2019-06-07T15:40:13.495Z,29.83
2019-06-07T15:42:13.557Z,29.86
2019-06-07T15:43:13.005Z,30.00
2019-06-07T15:44:13.430Z,30.10
2019-06-07T15:45:12.991Z,29.92
2019-06-07T15:46:13.079Z,29.77
2019-06-07T15:47:14.114Z,29.22
2019-06-07T15:48:12.931Z,29.46
2019-06-07T15:49:12.870Z,29.46
2019-06-07T15:50:13.514Z,29.61
2019-06-07T15:51:13.216Z,29.63
2019-06-07T15:53:13.660Z,29.47
2019-06-07T15:54:14.101Z,29.39
2019-06-07T15:55:13.328Z,29.31
2019-06-07T16:01:13.656Z,28.25
2019-06-07T16:02:12.915Z,28.46
2019-06-07T16:04:14.264Z,28.56
2019-06-07T16:07:13.351Z,28.53
2019-06-07T16:10:12.837Z,28.61
2019-06-07T16:11:13.137Z,28.62
2019-06-07T16:12:19.107Z,28.62
2019-06-07T16:13:12.952Z,28.71
2019-06-07T16:14:13.250Z,28.81
2019-06-07T16:16:12.980Z,28.83
2019-06-07T16:18:14.488Z,28.83
2019-06-07T16:19:14.618Z,28.71
2019-06-07T16:20:12.826Z,28.72
2019-06-07T16:21:13.107Z,28.84
2019-06-07T16:23:13.074Z,28.52
2019-06-07T16:26:13.635Z,28.71
2019-06-07T16:28:12.825Z,28.28
2019-06-07T16:29:13.693Z,28.28
2019-06-07T16:30:12.960Z,28.27
2019-06-07T16:31:12.691Z,28.34
2019-06-07T16:32:14.723Z,28.49
2019-06-07T16:34:12.785Z,28.31
2019-06-07T16:37:13.564Z,28.56
2019-06-07T16:38:14.345Z,28.50
2019-06-07T16:40:13.557Z,28.43
2019-06-07T16:41:12.927Z,28.50
2019-06-07T16:42:13.014Z,28.50
2019-06-07T16:43:17.730Z,28.43
2019-06-07T16:44:12.696Z,28.46
2019-06-07T16:45:12.656Z,28.47
2019-06-07T16:46:12.605Z,28.47
2019-06-07T16:47:12.674Z,28.31
2019-06-07T16:48:12.625Z,28.28
2019-06-07T16:49:13.362Z,28.22
2019-06-07T16:51:12.555Z,28.05
2019-06-07T16:52:12.586Z,27.90
2019-06-07T16:53:12.563Z,27.82
2019-06-07T16:54:13.342Z,28.09
2019-06-07T16:55:12.571Z,28.22